createdAt,value
2019-04-25T00:00:37.977Z,93.80
2019-04-25T00:03:12.214Z,93.60
2019-04-25T00:05:43.572Z,93.60
2019-04-25T00:08:14.397Z,93.40
2019-04-25T00:10:46.085Z,93.40
2019-04-25T00:13:16.723Z,93.50
2019-04-25T00:15:48.052Z,93.30
2019-04-25T00:18:18.711Z,93.10
2019-04-25T00:20:53.921Z,93.10
2019-04-25T00:23:24.481Z,93.10
2019-04-25T00:26:15.713Z,93.10
2019-04-25T00:28:46.722Z,93.30
2019-04-25T00:31:18.470Z,93.10
2019-04-25T00:33:49.590Z,93.10
2019-04-25T00:36:21.820Z,93.00
2019-04-25T00:38:53.237Z,93.10
2019-04-25T00:41:23.732Z,93.00
2019-04-25T00:43:54.352Z,93.10
2019-04-25T00:46:24.851Z,93.30
2019-04-25T00:48:55.288Z,93.20
2019-04-25T00:51:25.668Z,93.40
2019-04-25T00:53:56.102Z,93.40
2019-04-25T00:56:26.532Z,93.40
2019-04-25T00:59:16.031Z,93.40
2019-04-25T01:02:01.495Z,93.40
2019-04-25T01:04:33.890Z,93.60
2019-04-25T01:07:04.547Z,93.50
2019-04-25T01:09:35.267Z,93.30
2019-04-25T01:12:06.602Z,93.40
2019-04-25T01:14:37.119Z,93.60
2019-04-25T01:17:07.877Z,93.60
2019-04-25T01:19:38.380Z,93.70
2019-04-25T01:22:11.794Z,94.10
2019-04-25T01:24:43.855Z,94.30
2019-04-25T01:27:14.591Z,94.60
2019-04-25T01:29:46.320Z,94.70
2019-04-25T01:32:20.566Z,95.00
2019-04-25T01:35:01.103Z,95.10
2019-04-25T01:37:39.313Z,95.40
2019-04-25T01:40:29.088Z,95.60
2019-04-25T01:43:18.638Z,95.80
2019-04-25T01:45:49.690Z,96.00
2019-04-25T01:48:20.569Z,96.30
2019-04-25T01:50:51.101Z,96.40
2019-04-25T01:53:21.541Z,96.30
2019-04-25T01:56:00.944Z,96.50
2019-04-25T01:58:25.342Z,96.60
2019-04-25T02:00:57.068Z,97.50
2019-04-25T02:03:28.041Z,97.70
2019-04-25T02:05:59.664Z,97.60
2019-04-25T02:08:30.132Z,97.70
2019-04-25T02:11:11.723Z,97.50
2019-04-25T02:13:43.739Z,97.70
2019-04-25T02:16:14.558Z,97.90
2019-04-25T02:18:45.077Z,97.90
2019-04-25T02:21:15.832Z,98.10
2019-04-25T02:23:46.371Z,98.30
2019-04-25T02:26:18.617Z,98.30
2019-04-25T02:28:49.121Z,98.80
2019-04-25T02:31:19.794Z,99.10
2019-04-25T02:33:56.680Z,99.10
2019-04-25T02:36:25.468Z,99.50
2019-04-25T02:38:59.556Z,99.80
2019-04-25T02:41:28.387Z,99.80
2019-04-25T02:44:02.994Z,99.90
2019-04-25T02:46:50.322Z,99.90
2019-04-25T02:49:40.114Z,99.90
2019-04-25T02:52:18.080Z,99.90
2019-04-25T02:54:49.966Z,99.90
2019-04-25T02:57:20.606Z,99.90
2019-04-25T02:59:51.056Z,99.90
2019-04-25T03:02:24.868Z,99.90
2019-04-25T03:04:57.548Z,99.90
2019-04-25T03:07:27.790Z,99.90
2019-04-25T03:09:59.482Z,99.90
2019-04-25T03:12:33.509Z,99.90
2019-04-25T03:15:05.347Z,99.90
2019-04-25T03:17:34.831Z,99.90
2019-04-25T03:20:20.714Z,99.90
2019-04-25T03:22:51.337Z,99.90
2019-04-25T03:25:24.599Z,99.90
2019-04-25T03:27:54.182Z,99.90
2019-04-25T03:30:25.672Z,99.90
2019-04-25T03:32:56.498Z,99.90
2019-04-25T03:35:27.004Z,99.90
2019-04-25T03:37:57.682Z,99.90
2019-04-25T03:40:28.506Z,99.90
2019-04-25T03:42:59.137Z,99.90
2019-04-25T03:45:29.840Z,99.90
2019-04-25T03:48:00.274Z,99.90
2019-04-25T03:50:31.642Z,99.90
2019-04-25T03:53:03.055Z,99.90
2019-04-25T03:55:35.925Z,99.90
2019-04-25T03:58:08.752Z,99.90
2019-04-25T04:00:38.976Z,99.90
2019-04-25T04:03:09.809Z,99.90
2019-04-25T04:05:40.321Z,99.90
2019-04-25T04:08:11.811Z,99.90
2019-04-25T04:10:43.245Z,99.90
2019-04-25T04:13:14.630Z,99.90
2019-04-25T04:15:45.925Z,99.90
2019-04-25T04:18:26.501Z,99.90
2019-04-25T04:21:03.208Z,99.90
2019-04-25T04:23:40.992Z,99.90
2019-04-25T04:26:13.660Z,99.90
2019-04-25T04:28:45.467Z,99.90
2019-04-25T04:31:16.599Z,99.90
2019-04-25T04:33:47.388Z,99.90
2019-04-25T04:36:19.817Z,99.90
2019-04-25T04:38:50.365Z,99.90
2019-04-25T04:41:20.870Z,99.90
2019-04-25T04:43:51.345Z,99.90
2019-04-25T04:46:21.840Z,99.90
2019-04-25T04:48:54.029Z,99.90
2019-04-25T04:51:24.628Z,99.50
2019-04-25T04:53:55.347Z,98.90
2019-04-25T04:56:25.822Z,98.70
2019-04-25T04:58:56.437Z,98.10
2019-04-25T05:01:28.718Z,97.60
2019-04-25T05:04:07.202Z,97.20
2019-04-25T05:06:47.048Z,97.20
2019-04-25T05:09:23.680Z,97.10
2019-04-25T05:11:54.069Z,97.00
2019-04-25T05:14:26.587Z,97.30
2019-04-25T05:16:56.752Z,97.70
2019-04-25T05:19:27.303Z,98.10
2019-04-25T05:21:58.900Z,98.50
2019-04-25T05:24:29.518Z,98.50
2019-04-25T05:26:59.933Z,98.60
2019-04-25T05:29:30.391Z,98.40
2019-04-25T05:32:01.124Z,98.50
2019-04-25T05:34:31.782Z,98.20
2019-04-25T05:37:03.854Z,98.60
2019-04-25T05:39:34.303Z,98.30
2019-04-25T05:42:11.883Z,98.10
2019-04-25T05:44:44.029Z,97.60
2019-04-25T05:47:15.901Z,97.20
2019-04-25T05:49:46.876Z,97.10
2019-04-25T05:52:17.571Z,96.50
2019-04-25T05:54:48.081Z,96.40
2019-04-25T05:57:18.809Z,96.30
2019-04-25T05:59:49.508Z,96.10
2019-04-25T06:02:20.148Z,95.60
2019-04-25T06:04:50.721Z,95.50
2019-04-25T06:07:21.527Z,94.40
2019-04-25T06:10:14.435Z,94.60
2019-04-25T06:12:50.882Z,93.50
2019-04-25T06:15:24.965Z,92.00
2019-04-25T06:18:14.841Z,91.60
2019-04-25T06:20:45.359Z,91.10
2019-04-25T06:23:36.277Z,90.40
2019-04-25T06:26:19.859Z,90.70
2019-04-25T06:28:49.468Z,90.40
2019-04-25T06:31:11.668Z,90.40
2019-04-25T06:33:43.474Z,90.20
2019-04-25T06:36:14.176Z,90.40
2019-04-25T06:38:44.858Z,89.30
2019-04-25T06:41:15.572Z,89.10
2019-04-25T06:43:47.853Z,88.80
2019-04-25T06:46:37.591Z,89.00
2019-04-25T06:49:16.450Z,88.90
2019-04-25T06:51:51.490Z,87.60
2019-04-25T06:54:25.237Z,87.50
2019-04-25T06:56:55.618Z,85.70
2019-04-25T06:59:27.552Z,86.00
2019-04-25T07:01:58.645Z,86.60
2019-04-25T07:04:29.280Z,85.60
2019-04-25T07:07:10.604Z,85.70
2019-04-25T07:09:34.954Z,88.60
2019-04-25T07:12:05.700Z,88.60
2019-04-25T07:14:36.873Z,87.10
2019-04-25T07:17:07.901Z,88.30
2019-04-25T07:19:38.641Z,88.20
2019-04-25T07:22:09.292Z,86.80
2019-04-25T07:24:40.014Z,86.70
2019-04-25T07:27:26.768Z,87.00
2019-04-25T07:30:05.619Z,88.40
2019-04-25T07:32:44.378Z,87.40
2019-04-25T07:35:15.068Z,86.70
2019-04-25T07:37:45.720Z,85.80
2019-04-25T07:40:17.052Z,85.90
2019-04-25T07:42:47.762Z,83.50
2019-04-25T07:45:18.612Z,81.90
2019-04-25T07:47:49.727Z,83.20
2019-04-25T07:50:20.721Z,81.70
2019-04-25T07:52:51.400Z,82.40
2019-04-25T07:55:23.329Z,83.00
2019-04-25T07:57:54.137Z,83.00
2019-04-25T08:00:25.253Z,82.60
2019-04-25T08:02:55.860Z,82.10
2019-04-25T08:05:27.816Z,81.00
2019-04-25T08:07:59.598Z,77.10
2019-04-25T08:10:36.170Z,76.80
2019-04-25T08:13:06.763Z,76.30
2019-04-25T08:15:56.272Z,73.40
2019-04-25T08:18:30.278Z,73.50
2019-04-25T08:21:03.247Z,72.70
2019-04-25T08:23:36.638Z,70.90
2019-04-25T08:26:06.729Z,72.10
2019-04-25T08:28:50.148Z,70.80
2019-04-25T08:31:11.110Z,70.80
2019-04-25T08:33:43.467Z,68.00
2019-04-25T08:36:14.303Z,69.70
2019-04-25T08:38:44.917Z,69.50
2019-04-25T08:41:16.749Z,71.00
2019-04-25T08:43:47.468Z,70.00
2019-04-25T08:46:19.653Z,71.90
2019-04-25T08:49:09.522Z,73.00
2019-04-25T08:51:40.688Z,72.20
2019-04-25T08:54:31.196Z,73.20
2019-04-25T08:57:05.098Z,71.00
2019-04-25T08:59:49.161Z,71.30
2019-04-25T09:02:36.499Z,72.20
2019-04-25T09:05:29.456Z,74.40
2019-04-25T09:08:01.308Z,71.10
2019-04-25T09:10:32.728Z,72.30
2019-04-25T09:13:04.788Z,71.90
2019-04-25T09:15:36.698Z,72.60
2019-04-25T09:18:07.987Z,71.00
2019-04-25T09:20:40.886Z,69.90
2019-04-25T09:23:10.998Z,68.40
2019-04-25T09:25:44.447Z,68.60
2019-04-25T09:28:15.001Z,68.80
2019-04-25T09:30:45.965Z,67.30
2019-04-25T09:33:16.652Z,68.20
2019-04-25T09:35:47.259Z,66.30
2019-04-25T09:38:20.403Z,68.30
2019-04-25T09:40:51.368Z,65.10
2019-04-25T09:43:23.458Z,64.70
2019-04-25T09:46:07.994Z,63.70
2019-04-25T09:48:49.773Z,62.30
2019-04-25T09:51:25.675Z,64.40
2019-04-25T09:54:15.456Z,61.80
2019-04-25T09:57:24.395Z,64.60
2019-04-25T09:59:55.037Z,63.20
2019-04-25T10:02:26.683Z,62.80
2019-04-25T10:04:57.366Z,63.00
2019-04-25T10:07:27.918Z,62.90
2019-04-25T10:09:58.618Z,62.10
2019-04-25T10:12:29.427Z,62.10
2019-04-25T10:15:14.321Z,61.10
2019-04-25T10:17:46.103Z,58.20
2019-04-25T10:20:19.167Z,60.40
2019-04-25T10:22:49.704Z,60.40
2019-04-25T10:25:20.527Z,56.20
2019-04-25T10:27:51.973Z,56.80
2019-04-25T10:30:25.854Z,55.80
2019-04-25T10:32:56.129Z,57.70
2019-04-25T10:35:27.019Z,58.40
2019-04-25T10:37:57.841Z,57.50
2019-04-25T10:40:29.353Z,57.70
2019-04-25T10:43:01.415Z,57.10
2019-04-25T10:45:33.966Z,55.20
2019-04-25T10:48:05.267Z,55.50
2019-04-25T10:50:36.110Z,57.40
2019-04-25T10:53:06.830Z,57.30
2019-04-25T10:55:37.535Z,55.90
2019-04-25T10:58:08.382Z,55.40
2019-04-25T11:00:42.250Z,54.30
2019-04-25T11:03:33.725Z,53.70
2019-04-25T11:06:05.090Z,53.90
2019-04-25T11:08:35.927Z,53.40
2019-04-25T11:11:06.881Z,51.70
2019-04-25T11:13:37.768Z,53.60
2019-04-25T11:16:08.719Z,53.10
2019-04-25T11:18:39.514Z,53.90
2019-04-25T11:21:10.259Z,53.10
2019-04-25T11:23:41.403Z,54.10
2019-04-25T11:26:13.735Z,52.50
2019-04-25T11:28:45.319Z,53.00
2019-04-25T11:31:23.668Z,50.60
2019-04-25T11:33:54.545Z,51.80
2019-04-25T11:36:25.549Z,51.50
2019-04-25T11:39:15.378Z,51.70
2019-04-25T11:41:48.208Z,51.20
2019-04-25T11:44:18.782Z,51.70
2019-04-25T11:46:49.680Z,50.00
2019-04-25T11:49:20.522Z,50.40
2019-04-25T11:51:52.358Z,50.70
2019-04-25T11:54:24.260Z,50.00
2019-04-25T11:56:56.459Z,47.20
2019-04-25T11:59:27.382Z,48.10
2019-04-25T12:01:58.025Z,48.10
2019-04-25T12:04:28.892Z,47.10
2019-04-25T12:06:59.525Z,46.80
2019-04-25T12:09:30.239Z,47.20
2019-04-25T12:12:00.904Z,48.60
2019-04-25T12:14:31.761Z,48.20
2019-04-25T12:17:03.807Z,46.60
2019-04-25T12:19:37.989Z,45.80
2019-04-25T12:22:11.209Z,46.70
2019-04-25T12:24:44.509Z,47.40
2019-04-25T12:27:14.518Z,48.40
2019-04-25T12:29:45.984Z,47.00
2019-04-25T12:32:16.959Z,45.30
2019-04-25T12:34:47.518Z,44.90
2019-04-25T12:37:19.775Z,43.10
2019-04-25T12:39:50.935Z,42.10
2019-04-25T12:42:21.978Z,43.40
2019-04-25T12:45:07.167Z,43.10
2019-04-25T12:47:41.717Z,42.90
2019-04-25T12:50:14.267Z,41.70
2019-04-25T12:52:46.529Z,41.20
2019-04-25T12:55:17.702Z,44.20
2019-04-25T12:57:49.435Z,42.30
2019-04-25T13:00:25.022Z,40.80
2019-04-25T13:02:56.601Z,40.80
2019-04-25T13:05:27.452Z,39.00
2019-04-25T13:07:59.769Z,37.90
2019-04-25T13:10:33.309Z,38.00
2019-04-25T13:13:04.386Z,40.90
2019-04-25T13:15:35.505Z,41.00
2019-04-25T13:18:06.298Z,41.80
2019-04-25T13:20:37.076Z,43.30
2019-04-25T13:23:07.985Z,41.90
2019-04-25T13:25:38.756Z,44.50
2019-04-25T13:28:28.472Z,45.20
2019-04-25T13:31:18.391Z,45.80
2019-04-25T13:34:01.671Z,44.90
2019-04-25T13:36:34.713Z,45.30
2019-04-25T13:39:13.237Z,45.80
2019-04-25T13:41:44.971Z,45.70
2019-04-25T13:44:16.448Z,45.80
2019-04-25T13:46:47.640Z,46.50
2019-04-25T13:49:18.353Z,47.60
2019-04-25T13:51:51.664Z,48.70
2019-04-25T13:54:23.829Z,49.50
2019-04-25T13:56:54.829Z,48.30
2019-04-25T13:59:25.703Z,48.00
2019-04-25T14:01:57.913Z,49.40
2019-04-25T14:04:29.456Z,49.00
2019-04-25T14:07:01.382Z,50.10
2019-04-25T14:09:32.235Z,50.30
2019-04-25T14:12:04.040Z,49.90
2019-04-25T14:14:36.032Z,49.80
2019-04-25T14:17:25.995Z,48.80
2019-04-25T14:20:14.281Z,48.30
2019-04-25T14:22:46.329Z,50.40
2019-04-25T14:25:18.593Z,50.90
2019-04-25T14:27:49.336Z,49.40
2019-04-25T14:30:23.976Z,50.30
2019-04-25T14:32:54.698Z,49.60
2019-04-25T14:35:25.446Z,50.60
2019-04-25T14:37:56.282Z,49.40
2019-04-25T14:40:27.042Z,50.10
2019-04-25T14:42:57.819Z,49.10
2019-04-25T14:45:40.358Z,47.30
2019-04-25T14:48:00.817Z,47.00
2019-04-25T14:50:31.846Z,47.70
2019-04-25T14:53:02.605Z,47.00
2019-04-25T14:55:52.396Z,44.70
2019-04-25T14:58:30.356Z,45.70
2019-04-25T15:01:02.242Z,45.40
2019-04-25T15:03:33.389Z,44.90
2019-04-25T15:06:04.149Z,42.90
2019-04-25T15:08:34.839Z,44.00
2019-04-25T15:11:06.306Z,43.90
2019-04-25T15:13:37.128Z,42.70
2019-04-25T15:16:07.903Z,42.40
2019-04-25T15:18:46.476Z,42.60
2019-04-25T15:21:10.948Z,43.70
2019-04-25T15:23:41.841Z,44.10
2019-04-25T15:26:12.537Z,43.40
2019-04-25T15:28:46.749Z,42.20
2019-04-25T15:31:17.499Z,42.70
2019-04-25T15:33:48.144Z,43.90
2019-04-25T15:36:28.566Z,44.90
2019-04-25T15:39:18.398Z,44.60
2019-04-25T15:42:08.193Z,43.60
2019-04-25T15:44:57.806Z,44.70
2019-04-25T15:47:29.917Z,43.80
2019-04-25T15:50:00.999Z,44.70
2019-04-25T15:52:33.801Z,45.40
2019-04-25T15:55:07.500Z,44.60
2019-04-25T15:57:38.459Z,44.90
2019-04-25T16:00:15.012Z,45.40
2019-04-25T16:02:45.663Z,45.50
2019-04-25T16:05:16.639Z,46.80
2019-04-25T16:07:47.263Z,46.70
2019-04-25T16:10:19.389Z,48.20
2019-04-25T16:12:50.130Z,47.00
2019-04-25T16:15:20.989Z,46.90
2019-04-25T16:17:51.794Z,47.00
2019-04-25T16:20:22.635Z,46.50
2019-04-25T16:22:53.214Z,45.20
2019-04-25T16:25:23.895Z,45.20
2019-04-25T16:27:54.847Z,44.40
2019-04-25T16:30:30.685Z,45.00
2019-04-25T16:33:01.445Z,45.50
2019-04-25T16:35:33.236Z,46.70
2019-04-25T16:38:06.900Z,47.30
2019-04-25T16:40:43.040Z,48.40
2019-04-25T16:43:16.769Z,48.70
2019-04-25T16:45:47.609Z,50.20
2019-04-25T16:48:18.638Z,50.70
2019-04-25T16:50:49.360Z,52.40
2019-04-25T16:53:20.106Z,53.70
2019-04-25T16:55:50.890Z,55.50
2019-04-25T16:58:24.435Z,56.50
2019-04-25T17:01:14.109Z,57.60
2019-04-25T17:03:46.721Z,58.80
2019-04-25T17:06:17.439Z,59.70
2019-04-25T17:08:48.108Z,60.60
2019-04-25T17:11:18.941Z,62.90
2019-04-25T17:13:59.600Z,63.10
2019-04-25T17:16:45.346Z,64.00
2019-04-25T17:19:23.560Z,64.70
2019-04-25T17:21:54.207Z,65.60
2019-04-25T17:24:24.881Z,66.50
2019-04-25T17:26:57.307Z,67.40
2019-04-25T17:29:28.328Z,68.70
2019-04-25T17:32:07.472Z,70.30
2019-04-25T17:34:57.081Z,71.70
2019-04-25T17:37:39.497Z,74.00
2019-04-25T17:40:22.538Z,75.50
2019-04-25T17:42:56.558Z,77.80
2019-04-25T17:45:32.132Z,78.80
2019-04-25T17:48:04.523Z,80.20
2019-04-25T17:50:35.165Z,82.30
2019-04-25T17:53:06.059Z,83.90
2019-04-25T17:55:37.403Z,85.80
2019-04-25T17:58:08.484Z,88.40
2019-04-25T18:00:42.001Z,90.00
2019-04-25T18:03:13.869Z,90.80
2019-04-25T18:05:44.554Z,91.10
2019-04-25T18:08:15.586Z,91.40
2019-04-25T18:10:46.329Z,91.80
2019-04-25T18:15:14.040Z,92.70
2019-04-25T18:17:45.053Z,92.80
2019-04-25T18:20:19.868Z,93.20
2019-04-25T18:22:58.400Z,93.40
2019-04-25T18:25:47.852Z,94.00
2019-04-25T18:28:23.689Z,94.00
2019-04-25T18:30:54.729Z,94.40
2019-04-25T18:33:29.682Z,94.60
2019-04-25T18:36:19.539Z,94.60
2019-04-25T18:39:01.357Z,94.50
2019-04-25T18:41:39.723Z,94.80
2019-04-25T18:44:11.211Z,94.70
2019-04-25T18:46:47.170Z,95.00
2019-04-25T18:49:18.124Z,95.10
2019-04-25T18:51:57.812Z,95.50
2019-04-25T18:54:41.122Z,95.60
2019-04-25T18:57:22.243Z,95.90
2019-04-25T19:00:12.056Z,96.20
2019-04-25T19:03:02.624Z,96.80
2019-04-25T19:05:52.337Z,96.90
2019-04-25T19:08:26.269Z,97.10
2019-04-25T19:11:00.172Z,97.40
2019-04-25T19:13:31.371Z,97.70
2019-04-25T19:16:03.980Z,97.80
2019-04-25T19:18:36.452Z,98.20
2019-04-25T19:21:12.674Z,98.40
2019-04-25T19:23:49.731Z,98.90
2019-04-25T19:26:23.914Z,98.80
2019-04-25T19:28:59.648Z,98.80
2019-04-25T19:31:37.173Z,99.20
2019-04-25T19:34:10.545Z,99.30
2019-04-25T19:36:46.927Z,99.30
2019-04-25T19:39:25.720Z,99.50
2019-04-25T19:42:20.847Z,99.70
2019-04-25T19:44:59.832Z,99.90
2019-04-25T19:47:41.346Z,99.90
2019-04-25T19:50:18.531Z,99.90
2019-04-25T19:52:56.708Z,99.90
2019-04-25T19:55:33.220Z,99.90
2019-04-25T19:58:10.571Z,99.90
2019-04-25T20:00:50.821Z,99.90
2019-04-25T20:03:47.306Z,99.90
2019-04-25T20:06:16.050Z,99.90
2019-04-25T20:08:59.708Z,99.90
2019-04-25T20:11:36.879Z,99.90
2019-04-25T20:14:10.075Z,99.90
2019-04-25T20:16:44.896Z,99.90
2019-04-25T20:19:17.162Z,99.90
2019-04-25T20:21:50.027Z,99.90
2019-04-25T20:24:21.364Z,99.90
2019-04-25T20:26:52.574Z,99.90
2019-04-25T20:29:23.616Z,99.90
2019-04-25T20:31:54.880Z,99.90
2019-04-25T20:34:25.697Z,99.90
2019-04-25T20:36:56.554Z,99.90
2019-04-25T20:39:27.866Z,99.90
2019-04-25T20:41:58.448Z,99.90
2019-04-25T20:44:29.086Z,99.90
2019-04-25T20:47:01.784Z,99.90
2019-04-25T20:49:33.375Z,99.90
2019-04-25T20:52:04.300Z,99.90
2019-04-25T20:54:34.790Z,99.90
2019-04-25T20:57:05.478Z,99.90
2019-04-25T20:59:36.107Z,99.90
2019-04-25T21:02:07.673Z,99.90
2019-04-25T21:04:43.030Z,99.90
2019-04-25T21:07:14.597Z,99.90
2019-04-25T21:09:45.194Z,99.90
2019-04-25T21:12:16.295Z,99.90
2019-04-25T21:14:56.898Z,99.90
2019-04-25T21:17:36.640Z,99.90
2019-04-25T21:20:08.021Z,99.90
2019-04-25T21:22:41.514Z,99.90
2019-04-25T21:25:12.296Z,99.90
2019-04-25T21:27:42.951Z,99.90
2019-04-25T21:30:13.811Z,99.90
2019-04-25T21:32:53.402Z,99.90
2019-04-25T21:35:24.885Z,99.90
2019-04-25T21:37:55.590Z,99.90
2019-04-25T21:40:45.188Z,99.90
2019-04-25T21:43:20.403Z,99.90
2019-04-25T21:45:51.898Z,99.90
2019-04-25T21:48:23.548Z,99.90
2019-04-25T21:50:55.014Z,99.90
2019-04-25T21:53:26.750Z,99.90
2019-04-25T21:55:57.629Z,99.90
2019-04-25T21:58:28.525Z,99.90
2019-04-25T22:01:18.355Z,99.90
2019-04-25T22:03:49.628Z,99.90
2019-04-25T22:06:20.985Z,99.90
2019-04-25T22:08:51.475Z,99.90
2019-04-25T22:11:22.069Z,99.90
2019-04-25T22:13:52.870Z,99.90
2019-04-25T22:16:23.885Z,99.90
2019-04-25T22:18:55.512Z,99.90
2019-04-25T22:21:37.387Z,99.90
2019-04-25T22:24:08.909Z,99.90
2019-04-25T22:26:31.419Z,99.90
2019-04-25T22:29:03.279Z,99.90
2019-04-25T22:31:39.742Z,99.90
2019-04-25T22:34:29.476Z,99.90
2019-04-25T22:37:00.150Z,99.90
2019-04-25T22:39:30.849Z,99.90
2019-04-25T22:42:03.878Z,99.90
2019-04-25T22:44:35.074Z,99.90
2019-04-25T22:47:07.173Z,99.90
2019-04-25T22:49:38.670Z,99.90
2019-04-25T22:52:09.308Z,99.90
2019-04-25T22:54:40.068Z,99.90
2019-04-25T22:57:10.498Z,99.90
2019-04-25T22:59:41.235Z,99.90
2019-04-25T23:02:28.857Z,99.90
2019-04-25T23:05:14.409Z,99.90
2019-04-25T23:07:41.957Z,99.90
2019-04-25T23:10:12.793Z,99.90
2019-04-25T23:12:43.247Z,99.90
2019-04-25T23:15:15.278Z,99.90
2019-04-25T23:17:45.775Z,99.90
2019-04-25T23:20:19.858Z,99.90
2019-04-25T23:22:50.454Z,99.90
2019-04-25T23:25:26.414Z,99.90
2019-04-25T23:28:06.622Z,99.90
2019-04-25T23:30:57.362Z,99.90
2019-04-25T23:33:28.045Z,99.90
2019-04-25T23:35:58.973Z,99.90
2019-04-25T23:38:30.839Z,99.90
2019-04-25T23:41:01.748Z,99.90
2019-04-25T23:43:32.620Z,99.90
2019-04-25T23:46:03.158Z,99.90
2019-04-25T23:48:35.242Z,99.90
2019-04-25T23:51:06.375Z,99.90
2019-04-25T23:53:38.085Z,99.90
2019-04-25T23:56:08.928Z,99.90
2019-04-25T23:58:39.880Z,99.90
